.
WxDataArchive / Data Records for 2006-07-26
2006-07-25 July 2006 2006-07-27

Data Records for Wednesday, 26 July 2006

Time	Temp	Chill	HIndex	Humid	Dewpt	 Wind 	HiWind	WindDir	Rain 	Barom 
-----	----	-----	------	-----	-----	------	------	-------	-----	----- 
00:00	75.8	75.8	77.4	71	65.7	0	2	248	0.00	29.872 
00:05	75.8	75.8	77.4	71	65.7	0	3	248	0.00	29.872 
00:10	75.6	75.6	77.1	72	65.9	1	4	248	0.00	29.872 
00:15	75.4	75.4	76.9	72	65.7	1	2	270	0.00	29.874 
00:20	75.3	75.3	76.7	73	66.0	0	2	270	0.00	29.874 
00:25	75.1	75.1	76.5	73	65.8	0	2	270	0.00	29.874 
00:30	75.1	75.1	76.5	73	65.8	0	3	248	0.00	29.878 
00:35	75.1	75.1	76.5	73	65.8	1	3	248	0.00	29.878 
00:40	74.9	74.9	74.9	73	65.6	0	2	248	0.00	29.878 
00:45	74.7	74.7	74.7	73	65.5	0	1	248	0.00	29.877 
00:50	74.6	74.6	74.6	73	65.4	0	2	248	0.00	29.877 
00:55	74.6	74.6	74.6	73	65.4	1	2	248	0.00	29.877 
01:00	74.6	74.6	74.6	73	65.4	1	3	22	0.00	29.876 
01:05	74.6	74.6	74.6	73	65.4	0	2	292	0.00	29.876 
01:10	74.6	74.6	74.6	73	65.4	0	2	292	0.00	29.876 
01:15	74.6	74.6	74.6	73	65.4	0	2	292	0.00	29.878 
01:20	74.6	74.6	74.6	73	65.4	1	3	248	0.00	29.878 
01:25	74.6	74.6	74.6	73	65.4	1	4	248	0.00	29.878 
01:30	74.6	74.6	74.6	73	65.4	0	1	248	0.00	29.870 
01:35	74.4	74.4	74.4	73	65.2	1	2	248	0.00	29.870 
01:40	74.4	74.4	74.4	74	65.6	0	3	248	0.00	29.870 
01:45	74.2	74.2	74.2	74	65.4	0	1	248	0.00	29.867 
01:50	74.0	74.0	74.0	74	65.2	0	3	248	0.00	29.867 
01:55	74.0	74.0	74.0	74	65.2	1	3	248	0.00	29.867 
02:00	74.0	74.0	74.0	74	65.2	1	3	248	0.00	29.867 
02:05	74.0	74.0	74.0	74	65.2	0	2	248	0.00	29.867 
02:10	73.9	73.9	73.9	75	65.5	0	2	248	0.00	29.867 
02:15	73.7	73.7	73.7	75	65.3	0	1	248	0.00	29.864 
02:20	73.5	73.5	73.5	75	65.1	0	3	248	0.00	29.864 
02:25	73.3	73.3	73.3	76	65.3	0	1	248	0.00	29.864 
02:30	73.3	73.3	73.3	76	65.3	0	2	248	0.00	29.860 
02:35	73.2	73.2	73.2	76	65.2	0	1	248	0.00	29.860 
02:40	73.0	73.0	73.0	77	65.3	0	2	248	0.00	29.860 
02:45	73.0	73.0	73.0	77	65.3	1	3	248	0.00	29.852 
02:50	73.0	73.0	73.0	77	65.3	0	2	248	0.00	29.852 
02:55	73.0	73.0	73.0	77	65.3	0	2	248	0.00	29.852 
03:00	72.8	72.8	72.8	77	65.2	0	3	248	0.00	29.850 
03:05	72.8	72.8	72.8	77	65.2	0	2	248	0.00	29.850 
03:10	72.8	72.8	72.8	77	65.2	0	2	248	0.00	29.850 
03:15	72.7	72.7	72.7	77	65.1	0	1	248	0.00	29.842 
03:20	72.7	72.7	72.7	78	65.4	0	2	248	0.00	29.842 
03:25	72.8	72.8	72.8	78	65.5	1	3	248	0.00	29.842 
03:30	72.8	72.8	72.8	77	65.2	1	2	270	0.00	29.835 
03:35	72.8	72.8	72.8	78	65.5	0	2	270	0.00	29.835 
03:40	72.7	72.7	72.7	78	65.4	0	2	270	0.00	29.835 
03:45	72.5	72.5	72.5	78	65.2	0	2	270	0.00	29.835 
03:50	72.3	72.3	72.3	79	65.4	0	1	270	0.00	29.835 
03:55	72.3	72.3	72.3	79	65.4	0	2	270	0.00	29.835 
04:00	72.1	72.1	72.1	79	65.2	0	1	270	0.00	29.826 
04:05	72.0	72.0	72.0	79	65.1	0	2	270	0.00	29.826 
04:10	72.0	72.0	72.0	80	65.5	0	4	270	0.00	29.826 
04:15	72.0	72.0	72.0	80	65.5	0	2	270	0.00	29.827 
04:20	72.0	72.0	72.0	79	65.1	0	3	270	0.00	29.827 
04:25	72.0	72.0	72.0	79	65.1	1	4	248	0.00	29.827 
04:30	72.1	72.1	72.1	79	65.2	0	2	248	0.00	29.826 
04:35	72.1	72.1	72.1	79	65.2	1	3	248	0.00	29.826 
04:40	72.0	72.0	72.0	80	65.5	0	2	225	0.00	29.826 
04:45	71.8	71.8	71.8	80	65.3	0	1	225	0.00	29.821 
04:50	71.6	71.6	71.6	80	65.1	0	2	225	0.00	29.821 
04:55	71.6	71.6	71.6	80	65.1	0	2	225	0.00	29.821 
05:00	71.5	71.5	71.5	80	65.0	0	2	225	0.00	29.829 
05:05	71.5	71.5	71.5	80	65.0	0	1	225	0.00	29.829 
05:10	71.3	71.3	71.3	80	64.8	1	2	225	0.00	29.829 
05:15	71.3	71.3	71.3	80	64.8	0	2	270	0.00	29.832 
05:20	71.3	71.3	71.3	80	64.8	0	2	270	0.00	29.832 
05:25	71.3	71.3	71.3	80	64.8	0	1	270	0.00	29.832 
05:30	71.1	71.1	71.1	81	65.0	0	1	270	0.00	29.834 
05:35	70.9	70.9	70.9	81	64.8	0	1	270	0.00	29.834 
05:40	70.6	70.6	70.6	81	64.5	0	1	270	0.00	29.834 
05:45	70.4	70.4	70.4	82	64.6	0	2	270	0.00	29.832 
05:50	70.3	70.3	70.3	82	64.5	0	1	270	0.00	29.832 
05:55	70.3	70.3	70.3	82	64.5	0	0	---	0.00	29.832 
06:00	69.9	69.9	69.9	83	64.5	0	1	270	0.00	29.829 
06:05	69.8	69.8	69.8	83	64.4	0	1	270	0.00	29.829 
06:10	69.6	69.6	69.6	84	64.5	0	1	270	0.00	29.829 
06:15	69.4	69.4	69.4	84	64.3	0	1	270	0.00	29.831 
06:20	69.3	69.3	69.3	84	64.2	0	0	---	0.00	29.831 
06:25	69.3	69.3	69.3	84	64.2	0	2	270	0.00	29.831 
06:30	69.1	69.1	69.1	84	64.1	0	2	270	0.00	29.832 
06:35	69.1	69.1	69.1	84	64.1	0	2	270	0.00	29.832 
06:40	69.1	69.1	69.1	84	64.1	0	4	248	0.00	29.832 
06:45	69.3	69.3	69.3	84	64.2	0	3	248	0.00	29.840 
06:50	69.3	69.3	69.3	84	64.2	1	4	248	0.00	29.840 
06:55	69.4	69.4	69.4	83	64.0	1	2	225	0.00	29.840 
07:00	69.6	69.6	69.6	83	64.2	1	4	225	0.00	29.840 
07:05	69.8	69.8	69.8	82	64.0	1	2	248	0.00	29.840 
07:10	69.9	69.9	69.9	82	64.1	1	3	248	0.00	29.840 
07:15	70.1	70.1	70.1	81	64.0	1	2	248	0.00	29.843 
07:20	70.1	70.1	70.1	81	64.0	0	2	248	0.00	29.843 
07:25	69.9	69.9	69.9	81	63.8	0	2	248	0.00	29.843 
07:30	69.9	69.9	69.9	81	63.8	0	2	248	0.00	29.845 
07:35	69.9	69.9	69.9	81	63.8	1	3	248	0.00	29.845 
07:40	70.4	70.4	70.4	81	64.3	1	4	248	0.00	29.845 
07:45	70.9	70.9	70.9	79	64.1	1	3	248	0.00	29.841 
07:50	71.5	71.5	71.5	78	64.3	0	2	248	0.00	29.841 
07:55	72.1	72.1	72.1	76	64.1	1	6	270	0.00	29.841 
08:00	72.7	72.7	72.7	76	64.7	1	6	90	0.00	29.837 
08:05	73.2	73.2	73.2	74	64.4	1	4	270	0.00	29.837 
08:10	73.5	73.5	73.5	73	64.3	2	5	270	0.00	29.837 
08:15	73.7	73.7	73.7	72	64.1	2	7	248	0.00	29.840 
08:20	73.9	73.9	73.9	72	64.3	2	4	270	0.00	29.840 
08:25	73.7	73.7	73.7	72	64.1	2	5	248	0.00	29.840 
08:30	73.7	73.7	73.7	72	64.1	1	4	248	0.00	29.846 
08:35	73.9	73.9	73.9	73	64.7	1	5	248	0.00	29.846 
08:40	74.6	74.6	74.6	71	64.6	2	5	248	0.00	29.846 
08:45	75.4	75.4	77.1	69	64.5	2	4	248	0.00	29.851 
08:50	76.3	76.3	78.0	68	64.9	2	6	248	0.00	29.851 
08:55	77.0	77.0	78.8	67	65.2	1	3	292	0.00	29.851 
09:00	77.4	77.4	79.2	64	64.2	3	5	248	0.00	29.846 
09:05	77.2	77.2	79.0	65	64.5	2	5	248	0.00	29.846 
09:10	77.0	77.0	78.8	65	64.3	3	8	270	0.00	29.846 
09:15	76.7	76.7	78.5	66	64.5	2	5	248	0.00	29.846 
09:20	76.7	76.7	78.5	66	64.5	3	6	248	0.00	29.846 
09:25	76.7	76.7	78.5	66	64.5	2	5	270	0.00	29.846 
09:30	76.7	76.7	78.5	66	64.5	3	6	248	0.00	29.846 
09:35	76.7	76.7	78.5	66	64.5	2	4	248	0.00	29.846 
09:40	76.7	76.7	78.5	67	64.9	2	4	248	0.00	29.846 
09:45	76.7	76.7	78.5	66	64.5	2	6	248	0.00	29.841 
09:50	76.8	76.8	78.6	66	64.6	1	3	248	0.00	29.841 
09:55	77.2	77.2	79.0	65	64.5	2	5	248	0.00	29.841 
10:00	77.2	77.2	79.0	65	64.5	3	6	248	0.00	29.836 
10:05	77.4	77.4	79.2	65	64.7	2	4	270	0.00	29.836 
10:10	77.7	77.7	79.5	64	64.5	3	9	248	0.00	29.836 
10:15	77.9	77.9	79.7	65	65.2	2	5	248	0.00	29.827 
10:20	78.1	78.1	79.9	63	64.5	2	5	248	0.00	29.827 
10:25	78.5	78.5	80.3	63	64.8	2	6	248	0.00	29.827 
10:30	78.6	78.6	80.4	62	64.5	3	7	270	0.00	29.826 
10:35	78.8	78.8	80.6	62	64.7	3	7	270	0.00	29.826 
10:40	79.2	79.2	80.9	60	64.1	3	10	248	0.00	29.826 
10:45	79.2	79.2	81.0	61	64.6	2	6	248	0.00	29.823 
10:50	79.4	79.4	81.2	61	64.8	2	7	248	0.00	29.823 
10:55	79.8	79.8	81.7	61	65.1	2	5	270	0.00	29.823 
11:00	80.1	80.1	82.0	61	65.4	2	6	270	0.00	29.818 
11:05	80.5	80.5	82.3	59	64.8	2	5	270	0.00	29.818 
11:10	81.1	81.1	83.0	59	65.4	2	5	270	0.00	29.818 
11:15	81.1	81.1	82.9	58	64.9	3	9	248	0.00	29.820 
11:20	81.1	81.1	83.0	59	65.4	2	5	248	0.00	29.820 
11:25	81.4	81.4	83.3	58	65.2	3	6	270	0.00	29.820 
11:30	81.4	81.4	83.3	58	65.2	3	6	270	0.00	29.820 
11:35	82.2	82.2	84.3	58	65.9	2	5	270	0.00	29.820 
11:40	82.2	82.2	84.2	57	65.4	2	4	248	0.00	29.820 
11:45	81.8	81.8	83.6	57	65.0	2	6	248	0.00	29.819 
11:50	82.2	82.2	84.2	57	65.4	3	6	248	0.00	29.819 
11:55	82.4	82.4	84.4	57	65.6	2	5	270	0.00	29.819 
12:00	82.0	82.0	84.6	61	67.2	3	9	248	0.00	29.815 
12:05	81.6	81.6	83.5	58	65.4	3	7	248	0.00	29.815 
12:10	81.8	81.8	83.8	58	65.6	2	6	248	0.00	29.815 
12:15	81.6	81.6	83.5	58	65.4	3	9	248	0.00	29.811 
12:20	81.8	81.8	83.8	58	65.6	1	4	270	0.00	29.811 
12:25	82.0	82.0	84.2	59	66.2	2	6	248	0.00	29.811 
12:30	81.8	81.8	84.0	59	66.0	3	7	270	0.00	29.809 
12:35	81.8	81.8	84.0	59	66.0	3	6	270	0.00	29.809 
12:40	82.0	82.0	84.4	60	66.7	2	6	248	0.00	29.809 
12:45	81.8	81.8	84.0	59	66.0	4	11	270	0.00	29.807 
12:50	81.8	81.8	84.1	60	66.5	2	5	248	0.00	29.807 
12:55	82.0	82.0	84.4	60	66.7	2	4	270	0.00	29.807 
13:00	82.2	82.2	84.7	60	66.9	2	5	270	0.00	29.793 
13:05	82.4	82.4	85.0	60	67.1	2	5	270	0.00	29.793 
13:10	82.8	82.8	85.2	58	66.5	3	7	270	0.00	29.793 
13:15	83.4	83.4	85.8	57	66.5	4	7	270	0.00	29.805 
13:20	83.6	83.6	86.4	58	67.2	3	10	270	0.00	29.805 
13:25	83.8	83.8	86.4	57	66.9	2	4	248	0.00	29.805 
13:30	83.6	83.6	86.4	58	67.2	2	5	270	0.00	29.804 
13:35	83.4	83.4	86.1	58	67.0	3	6	248	0.00	29.804 
13:40	83.4	83.4	86.1	58	67.0	3	7	248	0.00	29.804 
13:45	83.2	83.2	86.0	59	67.4	3	11	270	0.00	29.801 
13:50	82.6	82.6	85.1	59	66.8	3	10	248	0.00	29.801 
13:55	82.6	82.6	85.1	59	66.8	3	6	248	0.00	29.801 
14:00	82.4	82.4	84.8	59	66.6	3	7	248	0.00	29.795 
14:05	82.4	82.4	85.0	60	67.1	2	7	270	0.00	29.795 
14:10	82.6	82.6	85.1	59	66.8	3	7	270	0.00	29.795 
14:15	82.6	82.6	85.1	59	66.8	3	7	248	0.00	29.792 
14:20	82.8	82.8	85.6	60	67.5	3	6	270	0.00	29.792 
14:25	83.2	83.2	86.0	59	67.4	2	5	270	0.00	29.792 
14:30	83.4	83.4	86.3	59	67.5	2	7	270	0.00	29.790 
14:35	83.2	83.2	86.2	60	67.8	2	4	270	0.00	29.790 
14:40	83.0	83.0	85.9	60	67.7	2	4	270	0.00	29.790 
14:45	82.8	82.8	86.1	62	68.4	1	3	248	0.00	29.789 
14:50	82.4	82.4	85.2	61	67.6	4	12	270	0.00	29.789 
14:55	82.0	82.0	84.8	62	67.7	3	6	248	0.00	29.789 
15:00	81.8	81.8	84.5	62	67.5	2	7	270	0.00	29.786 
15:05	82.0	82.0	84.8	62	67.7	3	10	270	0.00	29.786 
15:10	82.0	82.0	85.0	63	68.1	3	5	270	0.00	29.786 
15:15	82.2	82.2	85.7	65	69.2	1	5	248	0.00	29.764 
15:20	82.6	82.6	85.9	63	68.7	2	5	90	0.00	29.764 
15:25	83.2	83.2	86.7	62	68.8	2	5	248	0.00	29.764 
15:30	84.0	84.0	88.1	62	69.5	2	6	68	0.00	29.758 
15:35	84.3	84.3	88.0	60	68.9	3	7	270	0.00	29.758 
15:40	84.1	84.1	88.2	62	69.6	2	5	90	0.00	29.758 
15:45	83.6	83.6	87.4	62	69.2	2	4	248	0.00	29.750 
15:50	83.0	83.0	86.4	62	68.6	2	4	270	0.00	29.750 
15:55	82.6	82.6	85.7	62	68.2	2	10	270	0.00	29.750 
16:00	82.4	82.4	85.6	63	68.5	2	5	248	0.00	29.760 
16:05	82.4	82.4	85.6	63	68.5	3	6	270	0.00	29.760 
16:10	82.8	82.8	86.3	63	68.9	2	6	248	0.00	29.760 
16:15	83.0	83.0	86.4	62	68.6	2	6	270	0.00	29.762 
16:20	83.0	83.0	86.6	63	69.1	1	4	248	0.00	29.762 
16:25	83.0	83.0	86.6	63	69.1	2	4	248	0.00	29.762 
16:30	83.4	83.4	87.3	63	69.5	1	4	225	0.00	29.762 
16:35	83.4	83.4	87.3	63	69.5	1	4	248	0.00	29.762 
16:40	83.6	83.6	87.9	64	70.1	1	4	270	0.00	29.762 
16:45	83.6	83.6	87.9	64	70.1	1	3	248	0.00	29.758 
16:50	83.4	83.4	87.6	64	69.9	1	4	248	0.00	29.758 
16:55	83.6	83.6	87.9	64	70.1	2	4	270	0.00	29.758 
17:00	84.0	84.0	88.4	63	70.0	2	6	248	0.00	29.757 
17:05	83.8	83.8	87.7	62	69.4	3	6	270	0.00	29.757 
17:10	83.4	83.4	87.6	64	69.9	2	5	248	0.00	29.757 
17:15	83.2	83.2	87.2	64	69.7	2	5	270	0.00	29.761 
17:20	83.0	83.0	86.9	64	69.5	3	6	270	0.00	29.761 
17:25	83.0	83.0	87.1	65	70.0	2	5	270	0.00	29.761 
17:30	82.8	82.8	86.7	65	69.8	1	4	248	0.00	29.761 
17:35	83.0	83.0	87.1	65	70.0	2	4	248	0.00	29.761 
17:40	83.0	83.0	87.1	65	70.0	3	6	270	0.00	29.761 
17:45	83.0	83.0	87.1	65	70.0	3	10	270	0.00	29.762 
17:50	82.6	82.6	86.6	66	70.1	2	5	270	0.00	29.762 
17:55	82.4	82.4	86.3	66	69.9	1	4	270	0.00	29.762 
18:00	82.2	82.2	86.1	67	70.1	1	4	248	0.00	29.767 
18:05	82.0	82.0	86.0	68	70.4	2	4	248	0.00	29.767 
18:10	82.2	82.2	86.4	68	70.6	3	6	270	0.00	29.767 
18:15	82.2	82.2	86.4	68	70.6	2	5	248	0.00	29.772 
18:20	82.0	82.0	86.0	68	70.4	3	7	270	0.00	29.772 
18:25	81.8	81.8	85.7	68	70.2	4	11	248	0.00	29.772 
18:30	81.6	81.6	85.3	68	70.0	3	9	248	0.00	29.766 
18:35	81.4	81.4	85.0	68	69.8	3	7	248	0.00	29.766 
18:40	81.1	81.1	84.6	69	69.9	3	6	270	0.00	29.766 
18:45	80.7	80.7	84.3	71	70.4	2	5	248	0.00	29.765 
18:50	80.5	80.5	83.9	71	70.2	2	4	270	0.00	29.765 
18:55	80.5	80.5	84.1	72	70.6	2	4	248	0.00	29.765 
19:00	80.5	80.5	84.1	72	70.6	2	6	270	0.00	29.767 
19:05	80.3	80.3	83.7	72	70.4	2	5	270	0.00	29.767 
19:10	80.5	80.5	84.1	72	70.6	2	4	248	0.00	29.767 
19:15	80.5	80.5	84.1	72	70.6	3	7	270	0.00	29.760 
19:20	80.5	80.5	84.1	72	70.6	2	5	248	0.00	29.760 
19:25	80.3	80.3	83.9	73	70.8	2	5	248	0.00	29.760 
19:30	80.3	80.3	83.7	72	70.4	2	4	248	0.00	29.761 
19:35	80.3	80.3	83.7	72	70.4	2	3	248	0.00	29.761 
19:40	80.3	80.3	83.7	72	70.4	2	4	248	0.00	29.761 
19:45	80.3	80.3	83.9	73	70.8	1	3	248	0.00	29.754 
19:50	80.3	80.3	83.9	73	70.8	1	4	248	0.00	29.754 
19:55	80.3	80.3	83.9	73	70.8	1	4	270	0.00	29.754 
20:00	80.1	80.1	83.5	73	70.6	1	4	248	0.00	29.755 
20:05	80.3	80.3	83.9	73	70.8	2	4	248	0.00	29.755 
20:10	80.1	80.1	83.5	73	70.6	1	3	248	0.00	29.755 
20:15	80.1	80.1	83.6	74	71.0	1	4	248	0.00	29.750 
20:20	80.1	80.1	83.6	74	71.0	1	3	248	0.00	29.750 
20:25	79.9	79.9	83.1	73	70.4	2	4	248	0.00	29.750 
20:30	79.9	79.9	83.1	73	70.4	2	4	248	0.00	29.757 
20:35	79.8	79.8	83.1	74	70.8	2	5	248	0.00	29.757 
20:40	79.8	79.8	83.1	74	70.8	1	3	248	0.00	29.757 
20:45	79.8	79.8	83.1	74	70.8	1	3	248	0.00	29.756 
20:50	79.8	79.8	83.0	73	70.4	2	4	248	0.00	29.756 
20:55	79.6	79.6	82.6	73	70.2	2	5	248	0.00	29.756 
21:00	79.6	79.6	82.7	74	70.6	1	3	248	0.00	29.759 
21:05	79.6	79.6	82.7	74	70.6	1	3	248	0.00	29.759 
21:10	79.6	79.6	82.7	74	70.6	1	4	248	0.00	29.759 
21:15	79.4	79.4	82.4	74	70.4	1	2	248	0.00	29.760 
21:20	79.4	79.4	82.5	75	70.8	1	3	248	0.00	29.760 
21:25	79.2	79.2	82.1	75	70.6	1	3	248	0.00	29.760 
21:30	79.2	79.2	82.1	75	70.6	0	1	248	0.00	29.761 
21:35	79.0	79.0	81.9	76	70.8	0	1	248	0.00	29.761 
21:40	79.0	79.0	81.9	76	70.8	0	0	---	0.00	29.761 
21:45	78.8	78.8	81.5	76	70.6	0	1	248	0.00	29.758 
21:50	78.6	78.6	81.2	77	70.8	0	1	248	0.00	29.758 
21:55	78.5	78.5	81.1	77	70.7	0	1	248	0.00	29.758 
22:00	78.3	78.3	80.7	77	70.5	0	1	248	0.00	29.757 
22:05	78.1	78.1	80.4	78	70.7	0	1	248	0.00	29.757 
22:10	77.9	77.9	80.1	78	70.5	0	0	---	0.00	29.757 
22:15	77.7	77.7	79.8	79	70.7	0	1	248	0.00	29.744 
22:20	77.6	77.6	79.6	80	70.9	0	1	248	0.00	29.744 
22:25	77.4	77.4	79.2	80	70.7	0	1	248	0.00	29.744 
22:30	77.4	77.4	79.2	81	71.1	0	1	248	0.00	29.758 
22:35	77.0	77.0	78.4	84	71.8	1	5	248	0.04	29.758 
22:40	75.6	75.6	75.8	86	71.1	1	4	292	0.10	29.758 
22:45	74.6	74.6	74.6	88	70.8	1	3	248	0.08	29.760 
22:50	74.0	74.0	74.0	90	70.9	0	2	248	0.08	29.760 
22:55	73.5	73.5	73.5	91	70.7	1	3	112	0.07	29.760 
23:00	73.3	73.3	73.3	92	70.8	0	0	---	0.00	29.756 
23:05	73.2	73.2	73.2	92	70.7	0	1	90	0.00	29.756 
23:10	73.2	73.2	73.2	93	71.0	0	2	90	0.04	29.756 
23:15	73.2	73.2	73.2	93	71.0	0	1	90	0.03	29.772 
23:20	73.2	73.2	73.2	94	71.4	0	2	90	0.07	29.772 
23:25	73.0	73.0	73.0	94	71.2	0	1	90	0.00	29.772 
23:30	73.0	73.0	73.0	94	71.2	0	2	90	0.03	29.777 
23:35	73.3	73.3	73.3	94	71.5	1	3	338	0.10	29.777 
23:40	73.5	73.5	73.5	94	71.7	1	4	270	0.16	29.777 
23:45	74.0	74.0	74.0	95	72.5	1	4	270	0.12	29.779 
23:50	73.5	73.5	73.5	94	71.7	2	3	315	0.07	29.779 
23:55	72.8	72.8	72.8	94	71.0	2	5	270	0.14	29.779 

CoCoRaHS
IN-AL-39
A2 Web Hosting
Creative Commons License
GoDaddy
Look for:

loaded 2017-12-12 07:28:53 • last modified 2010-11-18 10:43:29
Privacy PolicyDisclaimer
• wx.awcolley.com is powered by PmWiki v.2002016 •
• all content (unless otherwise noted) © 2017 A W Colley